createdAt,value
2018-08-28T00:01:43.445Z,76.56
2018-08-28T00:04:12.156Z,76.63
2018-08-28T00:06:40.801Z,76.47
2018-08-28T00:09:09.489Z,76.51
2018-08-28T00:11:38.240Z,76.73
2018-08-28T00:14:07.274Z,75.97
2018-08-28T00:16:36.018Z,75.98
2018-08-28T00:19:04.930Z,76.00
2018-08-28T00:21:33.611Z,75.93
2018-08-28T00:24:02.279Z,75.55
2018-08-28T00:26:31.127Z,75.81
2018-08-28T00:28:59.747Z,76.64
2018-08-28T00:31:28.663Z,76.68
2018-08-28T00:33:57.358Z,76.44
2018-08-28T00:36:26.034Z,76.53
2018-08-28T00:38:54.961Z,76.66
2018-08-28T00:41:23.614Z,76.04
2018-08-28T00:43:52.270Z,75.74
2018-08-28T00:46:20.925Z,75.67
2018-08-28T00:48:49.820Z,75.67
2018-08-28T00:51:19.318Z,75.94
2018-08-28T00:53:48.962Z,75.81
2018-08-28T00:56:17.687Z,75.75
2018-08-28T00:58:46.617Z,75.79
2018-08-28T01:01:15.300Z,75.98
2018-08-28T01:03:44.179Z,76.07
2018-08-28T01:06:12.829Z,76.04
2018-08-28T01:08:41.782Z,75.54
2018-08-28T01:11:10.866Z,75.70
2018-08-28T01:13:39.537Z,75.85
2018-08-28T01:16:08.207Z,75.73
2018-08-28T01:18:36.886Z,75.11
2018-08-28T01:21:05.677Z,74.78
2018-08-28T01:23:34.701Z,74.84
2018-08-28T01:26:03.612Z,74.92
2018-08-28T01:28:32.682Z,73.98
2018-08-28T01:31:01.350Z,74.49
2018-08-28T01:33:30.183Z,74.41
2018-08-28T01:35:58.818Z,74.87
2018-08-28T01:38:27.794Z,74.22
2018-08-28T01:40:56.643Z,74.72
2018-08-28T01:43:26.121Z,74.97
2018-08-28T01:45:55.709Z,73.96
2018-08-28T01:48:24.400Z,74.43
2018-08-28T01:50:53.425Z,75.09
2018-08-28T01:53:22.236Z,74.58
2018-08-28T01:55:51.401Z,75.67
2018-08-28T01:58:20.094Z,76.01
2018-08-28T02:00:49.109Z,76.20
2018-08-28T02:03:17.861Z,76.27
2018-08-28T02:05:47.184Z,76.38
2018-08-28T02:08:15.947Z,77.82
2018-08-28T02:10:44.628Z,78.21
2018-08-28T02:13:13.561Z,78.40
2018-08-28T02:15:42.185Z,79.50
2018-08-28T02:18:10.807Z,80.35
2018-08-28T02:20:39.481Z,81.93
2018-08-28T02:23:08.155Z,82.86
2018-08-28T02:25:37.193Z,83.80
2018-08-28T02:28:06.350Z,83.77
2018-08-28T02:30:35.042Z,83.50
2018-08-28T02:33:03.778Z,82.58
2018-08-28T02:35:32.410Z,83.18
2018-08-28T02:38:01.454Z,83.42
2018-08-28T02:40:30.210Z,83.89
2018-08-28T02:42:58.867Z,84.06
2018-08-28T02:45:27.573Z,84.44
2018-08-28T02:47:57.290Z,84.72
2018-08-28T02:50:26.084Z,84.65
2018-08-28T02:52:54.849Z,84.62
2018-08-28T02:55:23.557Z,85.62
2018-08-28T02:57:53.694Z,86.13
2018-08-28T03:00:22.441Z,84.78
2018-08-28T03:02:51.492Z,84.29
2018-08-28T03:05:20.226Z,85.15
2018-08-28T03:07:49.197Z,85.49
2018-08-28T03:10:18.326Z,85.04
2018-08-28T03:12:47.414Z,85.52
2018-08-28T03:15:16.438Z,84.57
2018-08-28T03:17:45.444Z,84.77
2018-08-28T03:20:14.654Z,85.70
2018-08-28T03:22:43.477Z,85.78
2018-08-28T03:25:12.243Z,85.36
2018-08-28T03:27:41.646Z,85.58
2018-08-28T03:30:10.583Z,86.16
2018-08-28T03:32:39.840Z,86.52
2018-08-28T03:35:08.634Z,86.32
2018-08-28T03:37:37.410Z,85.10
2018-08-28T03:40:06.883Z,84.75
2018-08-28T03:42:35.702Z,85.61
2018-08-28T03:45:04.657Z,84.83
2018-08-28T03:47:33.701Z,86.01
2018-08-28T03:50:02.445Z,85.99
2018-08-28T03:52:31.305Z,85.92
2018-08-28T03:55:00.254Z,85.74
2018-08-28T03:57:28.883Z,85.54
2018-08-28T03:59:57.606Z,84.86
2018-08-28T04:02:26.535Z,85.68
2018-08-28T04:04:55.176Z,85.63
2018-08-28T04:07:23.863Z,85.41
2018-08-28T04:09:52.669Z,84.91
2018-08-28T04:12:21.486Z,85.27
2018-08-28T04:14:50.170Z,84.57
2018-08-28T04:17:19.045Z,84.79
2018-08-28T04:19:47.790Z,84.58
2018-08-28T04:22:16.417Z,84.81
2018-08-28T04:24:45.118Z,85.42
2018-08-28T04:27:13.821Z,85.58
2018-08-28T04:29:42.542Z,84.98
2018-08-28T04:32:11.261Z,85.20
2018-08-28T04:34:39.985Z,84.72
2018-08-28T04:37:09.154Z,85.15
2018-08-28T04:39:37.809Z,85.34
2018-08-28T04:42:06.022Z,85.48
2018-08-28T04:44:34.710Z,85.36
2018-08-28T04:47:03.494Z,84.94
2018-08-28T04:49:32.299Z,84.69
2018-08-28T04:52:00.938Z,85.59
2018-08-28T04:54:36.328Z,85.70
2018-08-28T04:57:05.186Z,85.25
2018-08-28T04:59:34.228Z,86.20
2018-08-28T05:02:02.971Z,85.78
2018-08-28T05:04:31.780Z,86.12
2018-08-28T05:07:01.070Z,85.54
2018-08-28T05:09:30.027Z,85.63
2018-08-28T05:11:58.819Z,84.02
2018-08-28T05:14:27.541Z,83.87
2018-08-28T05:16:56.251Z,84.43
2018-08-28T05:19:25.273Z,84.73
2018-08-28T05:21:54.002Z,84.22
2018-08-28T05:24:22.678Z,82.20
2018-08-28T05:26:51.517Z,82.64
2018-08-28T05:29:20.286Z,83.24
2018-08-28T05:31:49.037Z,79.42
2018-08-28T05:34:17.759Z,81.33
2018-08-28T05:36:46.512Z,80.86
2018-08-28T05:39:15.321Z,81.93
2018-08-28T05:41:44.065Z,82.55
2018-08-28T05:44:12.969Z,83.45
2018-08-28T05:46:41.658Z,83.76
2018-08-28T05:49:10.495Z,83.13
2018-08-28T05:51:39.292Z,82.21
2018-08-28T05:54:07.961Z,81.73
2018-08-28T05:56:36.594Z,81.36
2018-08-28T05:59:05.371Z,82.00
2018-08-28T06:01:34.306Z,81.94
2018-08-28T06:04:03.422Z,80.51
2018-08-28T06:06:32.226Z,79.63
2018-08-28T06:09:01.076Z,78.18
2018-08-28T06:11:29.742Z,79.64
2018-08-28T06:13:58.406Z,79.79
2018-08-28T06:16:27.218Z,79.67
2018-08-28T06:18:55.978Z,78.67
2018-08-28T06:21:24.615Z,78.29
2018-08-28T06:23:53.427Z,78.91
2018-08-28T06:26:22.253Z,79.52
2018-08-28T06:28:51.005Z,79.54
2018-08-28T06:31:19.768Z,77.16
2018-08-28T06:33:48.488Z,75.33
2018-08-28T06:36:17.182Z,76.49
2018-08-28T06:38:45.834Z,75.84
2018-08-28T06:41:14.748Z,76.01
2018-08-28T06:43:43.420Z,74.06
2018-08-28T06:46:12.170Z,73.74
2018-08-28T06:48:41.068Z,75.09
2018-08-28T06:51:09.806Z,73.32
2018-08-28T06:53:38.583Z,73.18
2018-08-28T06:56:07.297Z,72.61
2018-08-28T06:58:36.049Z,72.08
2018-08-28T07:01:04.773Z,71.24
2018-08-28T07:03:33.497Z,70.42
2018-08-28T07:06:02.442Z,71.51
2018-08-28T07:08:31.196Z,70.51
2018-08-28T07:10:59.842Z,71.79
2018-08-28T07:13:28.686Z,70.79
2018-08-28T07:15:57.358Z,70.57
2018-08-28T07:18:26.373Z,71.42
2018-08-28T07:20:55.118Z,70.29
2018-08-28T07:23:23.929Z,69.13
2018-08-28T07:25:52.672Z,68.95
2018-08-28T07:28:21.438Z,67.75
2018-08-28T07:30:50.222Z,68.11
2018-08-28T07:33:18.893Z,69.58
2018-08-28T07:35:47.701Z,68.90
2018-08-28T07:38:16.457Z,68.48
2018-08-28T07:40:45.177Z,66.90
2018-08-28T07:43:14.159Z,66.90
2018-08-28T07:45:42.834Z,65.53
2018-08-28T07:48:11.804Z,66.08
2018-08-28T07:50:40.622Z,63.93
2018-08-28T07:53:09.538Z,63.33
2018-08-28T07:55:38.405Z,61.89
2018-08-28T07:58:07.074Z,61.88
2018-08-28T08:00:35.735Z,61.69
2018-08-28T08:03:04.445Z,62.28
2018-08-28T08:05:33.175Z,61.87
2018-08-28T08:08:02.062Z,62.72
2018-08-28T08:10:30.904Z,61.25
2018-08-28T08:12:59.592Z,60.81
2018-08-28T08:15:28.292Z,58.57
2018-08-28T08:17:57.081Z,59.00
2018-08-28T08:20:25.894Z,59.00
2018-08-28T08:22:54.594Z,59.27
2018-08-28T08:25:23.486Z,58.31
2018-08-28T08:27:52.403Z,58.27
2018-08-28T08:30:21.194Z,58.57
2018-08-28T08:32:50.053Z,59.50
2018-08-28T08:35:19.225Z,55.74
2018-08-28T08:37:47.994Z,56.72
2018-08-28T08:40:16.701Z,55.28
2018-08-28T08:42:45.430Z,55.08
2018-08-28T08:45:14.280Z,55.92
2018-08-28T08:47:43.063Z,56.37
2018-08-28T08:50:11.824Z,56.37
2018-08-28T08:52:40.508Z,56.22
2018-08-28T08:55:09.456Z,55.22
2018-08-28T08:57:38.396Z,54.81
2018-08-28T09:00:07.115Z,54.42
2018-08-28T09:02:35.790Z,54.33
2018-08-28T09:05:04.530Z,53.70
2018-08-28T09:07:33.280Z,52.75
2018-08-28T09:10:02.102Z,51.68
2018-08-28T09:12:30.961Z,52.87
2018-08-28T09:14:59.888Z,52.54
2018-08-28T09:17:28.574Z,52.79
2018-08-28T09:19:57.294Z,52.49
2018-08-28T09:22:26.550Z,52.48
2018-08-28T09:24:55.197Z,51.85
2018-08-28T09:27:23.998Z,51.01
2018-08-28T09:29:52.678Z,50.60
2018-08-28T09:32:21.380Z,50.61
2018-08-28T09:34:50.138Z,50.62
2018-08-28T09:37:18.827Z,51.04
2018-08-28T09:39:47.520Z,51.23
2018-08-28T09:42:16.194Z,50.52
2018-08-28T09:44:44.889Z,51.11
2018-08-28T09:47:13.673Z,51.36
2018-08-28T09:49:42.329Z,49.81
2018-08-28T09:52:11.103Z,50.34
2018-08-28T09:54:39.866Z,50.69
2018-08-28T09:57:08.632Z,50.03
2018-08-28T09:59:37.670Z,50.60
2018-08-28T10:02:06.771Z,50.25
2018-08-28T10:04:35.487Z,49.76
2018-08-28T10:07:04.278Z,49.79
2018-08-28T10:09:33.014Z,49.62
2018-08-28T10:12:01.847Z,49.02
2018-08-28T10:14:30.554Z,48.80
2018-08-28T10:16:59.378Z,48.73
2018-08-28T10:19:28.088Z,48.01
2018-08-28T10:21:56.794Z,48.34
2018-08-28T10:24:25.665Z,49.31
2018-08-28T10:26:54.394Z,49.74
2018-08-28T10:29:23.113Z,48.80
2018-08-28T10:31:51.797Z,49.09
2018-08-28T10:34:20.512Z,48.66
2018-08-28T10:36:49.554Z,47.08
2018-08-28T10:39:18.397Z,47.09
2018-08-28T10:41:47.163Z,47.62
2018-08-28T10:44:15.945Z,47.07
2018-08-28T10:46:44.885Z,45.94
2018-08-28T10:49:13.644Z,46.97
2018-08-28T10:51:42.545Z,45.77
2018-08-28T10:54:11.443Z,44.82
2018-08-28T10:56:40.375Z,45.35
2018-08-28T10:59:09.169Z,45.60
2018-08-28T11:01:38.093Z,45.98
2018-08-28T11:04:06.988Z,45.68
2018-08-28T11:06:35.620Z,45.42
2018-08-28T11:09:05.372Z,45.37
2018-08-28T11:11:34.035Z,45.03
2018-08-28T11:14:02.994Z,45.30
2018-08-28T11:16:31.629Z,45.11
2018-08-28T11:19:00.326Z,45.22
2018-08-28T11:21:29.007Z,44.06
2018-08-28T11:23:57.793Z,43.86
2018-08-28T11:26:26.474Z,44.02
2018-08-28T11:28:55.161Z,44.18
2018-08-28T11:31:24.507Z,43.03
2018-08-28T11:33:53.158Z,41.79
2018-08-28T11:36:22.007Z,41.88
2018-08-28T11:38:50.697Z,42.07
2018-08-28T11:41:19.406Z,42.66
2018-08-28T11:43:48.093Z,41.29
2018-08-28T11:46:16.779Z,40.41
2018-08-28T11:48:45.474Z,40.93
2018-08-28T11:51:14.937Z,40.03
2018-08-28T11:53:43.774Z,39.76
2018-08-28T11:56:12.521Z,39.46
2018-08-28T11:58:41.270Z,38.47
2018-08-28T12:01:09.922Z,38.53
2018-08-28T12:03:38.750Z,37.59
2018-08-28T12:06:07.523Z,37.94
2018-08-28T12:08:36.289Z,36.87
2018-08-28T12:11:05.017Z,36.42
2018-08-28T12:13:33.745Z,34.74
2018-08-28T12:16:02.647Z,33.93
2018-08-28T12:18:31.515Z,31.68
2018-08-28T12:21:00.249Z,31.72
2018-08-28T12:23:29.265Z,31.42
2018-08-28T12:25:57.923Z,31.48
2018-08-28T12:28:26.728Z,31.78
2018-08-28T12:30:55.495Z,30.18
2018-08-28T12:33:24.318Z,28.83
2018-08-28T12:35:53.037Z,27.61
2018-08-28T12:38:21.742Z,28.00
2018-08-28T12:40:50.694Z,27.61
2018-08-28T12:43:19.328Z,29.00
2018-08-28T12:45:48.012Z,27.84
2018-08-28T12:48:16.786Z,27.17
2018-08-28T12:50:45.627Z,26.64
2018-08-28T12:53:14.370Z,27.83
2018-08-28T12:55:43.064Z,27.83
2018-08-28T12:58:11.850Z,27.95
2018-08-28T13:00:40.656Z,27.75
2018-08-28T13:03:09.482Z,25.62
2018-08-28T13:05:38.327Z,24.59
2018-08-28T13:08:07.755Z,23.30
2018-08-28T13:10:36.438Z,23.13
2018-08-28T13:13:05.146Z,23.13
2018-08-28T13:15:34.044Z,21.34
2018-08-28T13:18:03.026Z,22.89
2018-08-28T13:20:31.840Z,22.62
2018-08-28T13:23:00.576Z,23.20
2018-08-28T13:25:29.303Z,24.70
2018-08-28T13:27:58.106Z,24.86
2018-08-28T13:30:26.982Z,26.00
2018-08-28T13:32:55.737Z,23.77
2018-08-28T13:35:24.460Z,25.93
2018-08-28T13:37:53.223Z,24.16
2018-08-28T13:40:22.051Z,23.43
2018-08-28T13:42:50.672Z,23.15
2018-08-28T13:45:19.366Z,22.25
2018-08-28T13:47:48.214Z,21.37
2018-08-28T13:50:16.874Z,22.03
2018-08-28T13:52:45.567Z,21.75
2018-08-28T13:55:14.459Z,22.64
2018-08-28T13:57:43.228Z,22.67
2018-08-28T14:00:12.141Z,22.84
2018-08-28T14:02:40.710Z,22.61
2018-08-28T14:05:09.779Z,22.33
2018-08-28T14:07:38.702Z,23.26
2018-08-28T14:10:07.527Z,24.47
2018-08-28T14:12:36.242Z,25.81
2018-08-28T14:15:05.214Z,26.92
2018-08-28T14:17:33.943Z,27.90
2018-08-28T14:20:02.678Z,28.82
2018-08-28T14:22:31.555Z,29.44
2018-08-28T14:25:00.084Z,29.52
2018-08-28T14:27:28.842Z,30.10
2018-08-28T14:29:57.563Z,30.45
2018-08-28T14:32:26.391Z,32.27
2018-08-28T14:34:55.163Z,31.39
2018-08-28T14:37:23.945Z,31.66
2018-08-28T14:39:52.681Z,33.10
2018-08-28T14:42:21.528Z,31.60
2018-08-28T14:44:50.242Z,31.91
2018-08-28T14:47:19.034Z,32.11
2018-08-28T14:49:47.911Z,32.25
2018-08-28T14:52:16.523Z,31.52
2018-08-28T14:54:45.192Z,31.91
2018-08-28T14:57:14.071Z,32.02
2018-08-28T14:59:42.778Z,31.91
2018-08-28T15:02:11.475Z,32.85
2018-08-28T15:04:40.230Z,31.95
2018-08-28T15:07:09.064Z,31.47
2018-08-28T15:09:37.730Z,33.21
2018-08-28T15:12:06.582Z,32.55
2018-08-28T15:14:35.273Z,32.39
2018-08-28T15:17:04.172Z,32.19
2018-08-28T15:19:32.842Z,33.49
2018-08-28T15:22:01.668Z,32.83
2018-08-28T15:24:30.521Z,32.98
2018-08-28T15:26:59.255Z,33.21
2018-08-28T15:29:28.030Z,33.88
2018-08-28T15:31:57.106Z,34.09
2018-08-28T15:34:26.729Z,34.22
2018-08-28T15:36:55.758Z,33.50
2018-08-28T15:39:25.367Z,33.18
2018-08-28T15:41:54.129Z,33.58
2018-08-28T15:44:22.802Z,33.99
2018-08-28T15:46:51.607Z,33.40
2018-08-28T15:49:20.356Z,33.59
2018-08-28T15:51:49.038Z,33.06
2018-08-28T15:54:17.865Z,34.32
2018-08-28T15:56:46.635Z,34.62
2018-08-28T15:59:17.077Z,34.34
2018-08-28T16:01:45.840Z,34.51
2018-08-28T16:04:24.287Z,33.55
2018-08-28T16:06:53.418Z,33.21
2018-08-28T16:09:22.168Z,32.97
2018-08-28T16:11:50.822Z,33.07
2018-08-28T16:14:19.519Z,32.89
2018-08-28T16:16:48.316Z,33.45
2018-08-28T16:19:16.977Z,33.74
2018-08-28T16:21:51.920Z,33.86
2018-08-28T16:24:20.883Z,32.92
2018-08-28T16:26:49.605Z,32.84
2018-08-28T16:29:18.374Z,33.32
2018-08-28T16:31:47.111Z,32.79
2018-08-28T16:34:16.008Z,34.25
2018-08-28T16:36:44.647Z,33.63
2018-08-28T16:39:13.299Z,35.07
2018-08-28T16:41:41.994Z,33.45
2018-08-28T16:44:10.917Z,33.57
2018-08-28T16:46:40.155Z,33.03
2018-08-28T16:49:08.906Z,33.77
2018-08-28T16:51:37.614Z,34.27
2018-08-28T16:54:06.390Z,34.16
2018-08-28T16:56:35.173Z,33.79
2018-08-28T16:59:04.113Z,33.62
2018-08-28T17:01:32.962Z,33.17
2018-08-28T17:04:01.652Z,33.77
2018-08-28T17:06:32.023Z,33.79
2018-08-28T17:09:00.819Z,34.05
2018-08-28T17:11:31.287Z,33.73
2018-08-28T17:13:59.973Z,33.26
2018-08-28T17:16:31.518Z,33.69
2018-08-28T17:19:01.672Z,33.96
2018-08-28T17:21:31.658Z,33.95
2018-08-28T17:24:00.450Z,33.63
2018-08-28T17:26:29.255Z,33.84
2018-08-28T17:28:58.073Z,34.20
2018-08-28T17:31:26.750Z,34.59
2018-08-28T17:33:55.848Z,34.93
2018-08-28T17:36:24.614Z,35.14
2018-08-28T17:38:53.458Z,35.26
2018-08-28T17:41:22.216Z,35.24
2018-08-28T17:43:50.882Z,35.51
2018-08-28T17:46:19.593Z,35.47
2018-08-28T17:48:48.321Z,36.83
2018-08-28T17:51:17.035Z,36.48
2018-08-28T17:53:45.830Z,37.00
2018-08-28T17:56:14.724Z,37.68
2018-08-28T17:58:43.740Z,38.10
2018-08-28T18:01:12.985Z,38.42
2018-08-28T18:03:41.742Z,38.55
2018-08-28T18:06:10.567Z,38.91
2018-08-28T18:08:39.261Z,39.02
2018-08-28T18:11:08.301Z,39.71
2018-08-28T18:13:37.069Z,39.54
2018-08-28T18:16:05.715Z,40.09
2018-08-28T18:18:34.672Z,39.99
2018-08-28T18:21:03.422Z,40.97
2018-08-28T18:23:33.265Z,41.05
2018-08-28T18:26:01.897Z,41.29
2018-08-28T18:28:30.545Z,41.32
2018-08-28T18:30:59.177Z,41.85
2018-08-28T18:33:27.799Z,41.31
2018-08-28T18:35:56.713Z,41.75
2018-08-28T18:38:25.376Z,42.35
2018-08-28T18:40:54.729Z,42.29
2018-08-28T18:43:23.397Z,42.18
2018-08-28T18:45:52.231Z,42.80
2018-08-28T18:48:21.553Z,42.75
2018-08-28T18:50:50.536Z,42.69
2018-08-28T18:53:19.234Z,42.74
2018-08-28T18:55:47.974Z,42.88
2018-08-28T18:58:16.793Z,42.84
2018-08-28T19:00:45.728Z,43.34
2018-08-28T19:03:14.381Z,43.32
2018-08-28T19:05:43.046Z,43.78
2018-08-28T19:08:11.758Z,43.89
2018-08-28T19:10:40.427Z,43.84
2018-08-28T19:13:09.353Z,44.71
2018-08-28T19:15:38.030Z,44.36
2018-08-28T19:18:06.963Z,44.77
2018-08-28T19:20:35.677Z,44.20
2018-08-28T19:23:04.321Z,45.20
2018-08-28T19:25:33.202Z,45.84
2018-08-28T19:28:01.946Z,45.06
2018-08-28T19:30:30.840Z,45.81
2018-08-28T19:32:59.669Z,47.29
2018-08-28T19:35:28.381Z,48.28
2018-08-28T19:37:57.346Z,48.63
2018-08-28T19:40:26.221Z,49.65
2018-08-28T19:42:54.912Z,49.45
2018-08-28T19:45:23.617Z,49.22
2018-08-28T19:47:52.321Z,49.56
2018-08-28T19:50:21.083Z,49.38
2018-08-28T19:52:49.767Z,49.71
2018-08-28T19:55:18.594Z,50.01
2018-08-28T19:57:47.310Z,49.32
2018-08-28T20:00:16.037Z,49.41
2018-08-28T20:02:44.896Z,49.54
2018-08-28T20:05:13.570Z,49.67
2018-08-28T20:07:42.470Z,49.29
2018-08-28T20:10:11.293Z,49.79
2018-08-28T20:12:40.053Z,49.76
2018-08-28T20:15:09.188Z,49.70
2018-08-28T20:17:37.930Z,49.48
2018-08-28T20:20:06.834Z,49.66
2018-08-28T20:22:35.601Z,49.48
2018-08-28T20:25:04.299Z,49.78
2018-08-28T20:27:33.251Z,50.58
2018-08-28T20:30:01.911Z,51.44
2018-08-28T20:32:30.679Z,51.75
2018-08-28T20:34:59.613Z,51.75
2018-08-28T20:37:28.454Z,51.22
2018-08-28T20:39:57.298Z,52.63
2018-08-28T20:42:25.950Z,52.59
2018-08-28T20:44:54.611Z,51.71
2018-08-28T20:47:23.546Z,51.46
2018-08-28T20:49:52.515Z,50.87
2018-08-28T20:52:21.330Z,51.16
2018-08-28T20:54:50.085Z,51.63
2018-08-28T20:57:18.866Z,52.03
2018-08-28T20:59:47.684Z,51.90
2018-08-28T21:02:16.684Z,52.58
2018-08-28T21:04:46.340Z,52.79
2018-08-28T21:07:15.814Z,52.58
2018-08-28T21:09:45.097Z,52.66
2018-08-28T21:12:14.429Z,52.99
2018-08-28T21:14:43.816Z,53.51
2018-08-28T21:17:13.630Z,53.46
2018-08-28T21:19:42.912Z,53.74
2018-08-28T21:22:12.671Z,53.71
2018-08-28T21:24:41.793Z,53.88
2018-08-28T21:27:10.969Z,54.07
2018-08-28T21:29:40.850Z,54.10
2018-08-28T21:32:10.444Z,54.26
2018-08-28T21:34:39.771Z,54.28
2018-08-28T21:37:09.000Z,54.51
2018-08-28T21:39:38.136Z,54.38
2018-08-28T21:42:07.307Z,55.08
2018-08-28T21:44:36.536Z,55.20
2018-08-28T21:47:05.812Z,54.50
2018-08-28T21:49:34.885Z,54.20
2018-08-28T21:52:03.977Z,54.02
2018-08-28T21:54:33.150Z,54.58
2018-08-28T21:57:02.279Z,54.60
2018-08-28T21:59:31.762Z,55.08
2018-08-28T22:02:00.829Z,54.76
2018-08-28T22:04:30.071Z,55.00
2018-08-28T22:07:04.529Z,55.02
2018-08-28T22:09:34.009Z,55.42
2018-08-28T22:12:03.641Z,55.50
2018-08-28T22:14:32.820Z,56.65
2018-08-28T22:17:02.664Z,56.72
2018-08-28T22:19:32.280Z,56.47
2018-08-28T22:22:01.481Z,56.83
2018-08-28T22:24:31.336Z,57.03
2018-08-28T22:27:00.716Z,57.22
2018-08-28T22:29:29.597Z,57.15
2018-08-28T22:31:58.416Z,57.03
2018-08-28T22:34:27.410Z,57.14
2018-08-28T22:36:56.792Z,57.21
2018-08-28T22:39:25.675Z,57.74
2018-08-28T22:41:54.605Z,57.96
2018-08-28T22:44:23.664Z,58.13
2018-08-28T22:46:52.474Z,58.32
2018-08-28T22:49:21.263Z,58.72
2018-08-28T22:51:50.159Z,58.67
2018-08-28T22:54:18.895Z,58.99
2018-08-28T22:56:49.819Z,59.14
2018-08-28T22:59:18.623Z,58.78
2018-08-28T23:01:47.506Z,58.88
2018-08-28T23:04:16.645Z,59.05
2018-08-28T23:06:45.410Z,59.11
2018-08-28T23:09:14.221Z,58.99
2018-08-28T23:11:42.875Z,59.21
2018-08-28T23:14:11.601Z,59.50
2018-08-28T23:16:40.342Z,59.68
2018-08-28T23:19:08.985Z,59.95
2018-08-28T23:21:38.054Z,60.02
2018-08-28T23:24:06.693Z,60.30
2018-08-28T23:26:35.446Z,60.57
2018-08-28T23:29:04.298Z,60.20
2018-08-28T23:31:33.309Z,60.33
2018-08-28T23:34:02.194Z,60.29
2018-08-28T23:36:30.945Z,60.03
2018-08-28T23:38:59.583Z,59.99
2018-08-28T23:41:28.361Z,59.93
2018-08-28T23:43:57.266Z,60.07
2018-08-28T23:46:26.354Z,60.16
2018-08-28T23:48:55.376Z,60.37
2018-08-28T23:51:24.016Z,60.77
2018-08-28T23:53:52.717Z,60.93
2018-08-28T23:56:21.482Z,61.21
2018-08-28T23:58:50.402Z,61.49
